Time;durP1;ratioP1;P1;durP2;ratioP2;P2;SDS_P1;SDS_P2;PMS_P1;PMS_P2;Temp;Humidity;BMP_temperature;BMP_pressure;BME280_temperature;BME280_humidity;BME280_pressure;Samples;Min_cycle;Max_cycle;Signal;HPM_P1;HPM_P2
2021/07/12 00:02:21;;;;;;;6.85;5.35;;;18.40;99.90;;;;;;5110591;28;20032;-84
2021/07/12 00:04:47;;;;;;;8.50;5.72;;;18.40;99.90;;;;;;5111023;28;20088;-83
2021/07/12 00:07:12;;;;;;;9.90;5.72;;;18.40;99.90;;;;;;5109694;28;20094;-83
2021/07/12 00:09:38;;;;;;;6.45;5.35;;;18.40;99.90;;;;;;5111388;28;20023;-83
2021/07/12 00:12:04;;;;;;;12.93;5.50;;;18.30;99.90;;;;;;5109873;28;20024;-83
2021/07/12 00:14:30;;;;;;;9.30;5.40;;;18.30;99.90;;;;;;5111972;28;20024;-83
2021/07/12 00:16:56;;;;;;;8.05;5.88;;;18.30;99.90;;;;;;5101920;28;20032;-83
2021/07/12 00:19:22;;;;;;;8.57;6.22;;;18.30;99.90;;;;;;5096333;28;20471;-83
2021/07/12 00:21:47;;;;;;;7.18;5.55;;;18.30;99.90;;;;;;5095370;28;20150;-82
2021/07/12 00:24:13;;;;;;;8.02;5.55;;;18.30;99.90;;;;;;5096592;28;20039;-83
2021/07/12 00:26:39;;;;;;;6.38;5.70;;;18.20;99.90;;;;;;5095840;28;20027;-82
2021/07/12 00:29:05;;;;;;;6.63;5.32;;;18.20;99.90;;;;;;5095820;28;20878;-82
2021/07/12 00:31:30;;;;;;;10.15;5.88;;;18.20;99.90;;;;;;5096254;28;20035;-83
2021/07/12 00:33:56;;;;;;;7.70;5.32;;;18.10;99.90;;;;;;5098104;28;20043;-83
2021/07/12 00:36:22;;;;;;;7.90;5.65;;;18.10;99.90;;;;;;5095419;28;20028;-83
2021/07/12 00:38:47;;;;;;;7.15;5.55;;;18.10;99.90;;;;;;5096578;28;20054;-86
2021/07/12 00:41:13;;;;;;;7.85;5.38;;;18.10;99.90;;;;;;5096386;28;20047;-83
2021/07/12 00:43:39;;;;;;;10.35;5.75;;;18.10;99.90;;;;;;5097311;28;20050;-83
2021/07/12 00:46:08;;;;;;;9.05;5.78;;;18.10;99.90;;;;;;5098271;28;20059;-82
2021/07/12 00:48:34;;;;;;;7.45;5.68;;;18.10;99.90;;;;;;5096527;28;20031;-83
2021/07/12 00:51:00;;;;;;;9.20;5.40;;;18.10;99.90;;;;;;5095505;28;20024;-82
2021/07/12 00:53:26;;;;;;;6.65;5.32;;;18.10;99.90;;;;;;5096034;28;20053;-82
2021/07/12 00:55:52;;;;;;;7.63;5.65;;;18.00;99.90;;;;;;5096042;28;20056;-83
2021/07/12 00:58:27;;;;;;;8.02;5.43;;;18.00;99.90;;;;;;5095937;28;20078;-83
2021/07/12 01:00:59;;;;;;;7.20;5.32;;;18.00;99.90;;;;;;5095513;28;20020;-82
2021/07/12 01:03:25;;;;;;;6.15;5.10;;;18.00;99.90;;;;;;5095345;28;20028;-82
2021/07/12 01:05:52;;;;;;;8.13;5.65;;;18.00;99.90;;;;;;5096086;28;20085;-83
2021/07/12 01:08:20;;;;;;;7.28;5.35;;;18.00;99.90;;;;;;5095810;28;20016;-83
2021/07/12 01:11:15;;;;;;;8.27;5.78;;;18.00;99.90;;;;;;5095846;28;20062;-83
2021/07/12 01:13:54;;;;;;;6.88;5.45;;;18.00;99.90;;;;;;5097833;28;20016;-82
2021/07/12 01:16:54;;;;;;;8.00;5.13;;;18.00;99.90;;;;;;5096309;28;20024;-82
2021/07/12 01:19:53;;;;;;;8.63;5.30;;;17.90;99.90;;;;;;5096582;28;20024;-84
2021/07/12 01:22:38;;;;;;;8.40;5.65;;;18.00;99.90;;;;;;5095757;28;20020;-85
2021/07/12 01:25:09;;;;;;;7.72;5.60;;;18.00;99.90;;;;;;5096635;28;20140;-83
2021/07/12 01:28:51;;;;;;;6.38;5.43;;;17.90;99.90;;;;;;5097538;28;20059;-83
2021/07/12 01:31:53;;;;;;;7.43;5.20;;;18.00;99.90;;;;;;5038322;28;20571;-83
2021/07/12 01:34:30;;;;;;;7.15;5.53;;;17.90;99.90;;;;;;5056028;28;20025;-83
2021/07/12 01:37:04;;;;;;;7.95;5.57;;;17.90;99.90;;;;;;5086324;28;20259;-82
2021/07/12 01:39:36;;;;;;;5.68;5.05;;;17.90;99.90;;;;;;5097875;28;20020;-83
2021/07/12 01:42:08;;;;;;;9.23;5.38;;;17.90;99.90;;;;;;5095914;28;20032;-84
2021/07/12 01:44:55;;;;;;;8.15;5.80;;;17.90;99.90;;;;;;5096479;28;20097;-82
2021/07/12 01:47:34;;;;;;;7.72;5.60;;;17.90;99.90;;;;;;5096423;28;20472;-83
2021/07/12 01:50:26;;;;;;;8.02;5.63;;;17.90;99.90;;;;;;5097286;28;20353;-83
2021/07/12 01:53:11;;;;;;;6.88;6.00;;;17.90;99.90;;;;;;5097202;28;20016;-83
2021/07/12 01:56:18;;;;;;;7.13;5.90;;;17.90;99.90;;;;;;5095650;28;20104;-83
2021/07/12 01:58:52;;;;;;;6.95;5.80;;;17.80;99.90;;;;;;5095194;28;20143;-82
2021/07/12 02:01:21;;;;;;;9.95;6.20;;;17.80;99.90;;;;;;5095926;28;20028;-83
2021/07/12 02:03:47;;;;;;;7.45;5.75;;;17.80;99.90;;;;;;5094779;28;20463;-83
2021/07/12 02:06:14;;;;;;;8.35;6.05;;;17.80;99.90;;;;;;5096391;28;20028;-84
2021/07/12 02:08:45;;;;;;;8.05;6.38;;;17.80;99.90;;;;;;5094808;28;20028;-83
2021/07/12 02:11:13;;;;;;;9.63;6.40;;;17.80;99.90;;;;;;5093985;28;20077;-83
2021/07/12 02:13:40;;;;;;;8.55;6.18;;;17.80;99.90;;;;;;5096487;28;20040;-83
2021/07/12 02:16:06;;;;;;;8.73;6.15;;;17.80;99.90;;;;;;5096687;28;20473;-83
2021/07/12 02:18:34;;;;;;;9.00;6.00;;;17.80;99.90;;;;;;5096987;28;20106;-83
2021/07/12 02:21:01;;;;;;;8.47;6.80;;;17.80;99.90;;;;;;5094397;28;20028;-83
2021/07/12 02:23:28;;;;;;;9.52;6.35;;;17.70;99.90;;;;;;5096757;28;20024;-85
2021/07/12 02:25:55;;;;;;;8.35;6.15;;;17.70;99.90;;;;;;5094803;28;20038;-83
2021/07/12 02:28:22;;;;;;;8.05;6.22;;;17.70;99.90;;;;;;5095318;28;20116;-83
2021/07/12 02:30:50;;;;;;;8.57;6.70;;;17.70;99.90;;;;;;5095662;28;20020;-83
2021/07/12 02:33:16;;;;;;;7.70;6.30;;;17.70;99.90;;;;;;5095476;28;20019;-83
2021/07/12 02:35:43;;;;;;;8.77;7.00;;;17.70;99.90;;;;;;5093617;28;20024;-82
2021/07/12 02:38:09;;;;;;;8.70;6.15;;;17.60;99.90;;;;;;5093966;28;20066;-83
2021/07/12 02:40:35;;;;;;;8.52;6.55;;;17.70;99.90;;;;;;5093419;28;20397;-82
2021/07/12 02:43:02;;;;;;;7.57;6.05;;;17.70;99.90;;;;;;5094567;28;20089;-82
2021/07/12 02:45:30;;;;;;;8.52;6.35;;;17.70;99.90;;;;;;5095077;28;20024;-82
2021/07/12 02:47:56;;;;;;;8.20;6.43;;;17.60;99.90;;;;;;5094190;28;20541;-84
2021/07/12 02:50:22;;;;;;;10.05;6.78;;;17.60;99.90;;;;;;5094779;28;20021;-83
2021/07/12 02:52:51;;;;;;;8.02;6.28;;;17.60;99.90;;;;;;5093646;28;20020;-82
2021/07/12 02:55:17;;;;;;;9.95;6.20;;;17.60;99.90;;;;;;5096628;28;20020;-82
2021/07/12 02:57:43;;;;;;;9.88;6.68;;;17.50;99.90;;;;;;5095930;28;20034;-83
2021/07/12 03:00:11;;;;;;;9.65;6.60;;;17.50;99.90;;;;;;5097858;28;20028;-82
2021/07/12 03:02:37;;;;;;;9.40;6.93;;;17.50;99.90;;;;;;5096857;28;20024;-82
2021/07/12 03:05:05;;;;;;;10.38;7.10;;;17.50;99.90;;;;;;5098202;28;20054;-83
2021/07/12 03:07:35;;;;;;;11.55;6.95;;;17.50;99.90;;;;;;5098001;28;20462;-82
2021/07/12 03:10:10;;;;;;;9.07;6.85;;;17.40;99.90;;;;;;5097877;28;20081;-82
2021/07/12 03:12:49;;;;;;;10.02;6.85;;;17.40;99.90;;;;;;5096812;28;20024;-84
2021/07/12 03:15:17;;;;;;;9.50;7.13;;;17.40;99.90;;;;;;5091057;28;20074;-84
2021/07/12 03:17:48;;;;;;;11.05;6.97;;;17.40;99.90;;;;;;5095072;28;20032;-83
2021/07/12 03:20:14;;;;;;;9.57;7.25;;;17.40;99.90;;;;;;5094188;28;20115;-81
2021/07/12 03:22:41;;;;;;;13.20;7.32;;;17.40;99.90;;;;;;5095515;28;20019;-80
2021/07/12 03:25:10;;;;;;;11.50;8.27;;;17.40;99.90;;;;;;5094915;28;20028;-82
2021/07/12 03:27:37;;;;;;;9.40;7.07;;;17.30;99.90;;;;;;5094881;28;20074;-81
2021/07/12 03:30:06;;;;;;;10.48;7.05;;;17.30;99.90;;;;;;5094806;28;20081;-81
2021/07/12 03:32:33;;;;;;;9.52;7.07;;;17.30;99.90;;;;;;5093885;28;20076;-81
2021/07/12 03:35:00;;;;;;;12.18;7.05;;;17.30;99.90;;;;;;5093273;28;20026;-83
2021/07/12 03:37:26;;;;;;;9.50;7.20;;;17.30;99.90;;;;;;5090484;28;20024;-83
2021/07/12 03:39:52;;;;;;;9.88;7.47;;;17.30;99.90;;;;;;5094461;28;20020;-82
2021/07/12 03:42:19;;;;;;;9.80;7.22;;;17.30;99.90;;;;;;5093856;28;20028;-83
2021/07/12 03:44:46;;;;;;;9.60;8.05;;;17.30;99.90;;;;;;5094758;28;20053;-83
2021/07/12 03:47:31;;;;;;;10.63;6.97;;;17.30;99.90;;;;;;5094260;28;20115;-83
2021/07/12 03:50:10;;;;;;;12.05;7.90;;;17.30;99.90;;;;;;5092609;28;20375;-82
2021/07/12 03:53:01;;;;;;;9.77;7.90;;;17.40;99.90;;;;;;5095776;28;20020;-84
2021/07/12 03:55:28;;;;;;;11.43;8.38;;;17.30;99.90;;;;;;5096889;28;20045;-83
2021/07/12 03:57:55;;;;;;;12.48;8.77;;;17.30;99.90;;;;;;5095694;28;20109;-83
2021/07/12 04:00:26;;;;;;;10.00;8.25;;;17.30;99.90;;;;;;5093918;28;20024;-83
2021/07/12 04:02:52;;;;;;;12.02;8.93;;;17.30;99.90;;;;;;5093865;28;20055;-82
2021/07/12 04:05:20;;;;;;;11.68;8.77;;;17.30;99.90;;;;;;5093909;28;20031;-83
2021/07/12 04:07:46;;;;;;;11.82;8.85;;;17.40;99.90;;;;;;5095588;28;20376;-83
2021/07/12 04:10:13;;;;;;;12.68;9.48;;;17.40;99.90;;;;;;5093964;28;20034;-83
2021/07/12 04:12:41;;;;;;;14.93;10.10;;;17.30;99.90;;;;;;5093311;28;20107;-83
2021/07/12 04:15:09;;;;;;;13.55;9.88;;;17.30;99.90;;;;;;5093418;28;20108;-84
2021/07/12 04:17:35;;;;;;;11.85;9.98;;;17.40;99.90;;;;;;5094511;28;20020;-87
2021/07/12 04:20:02;;;;;;;12.27;9.68;;;17.40;99.90;;;;;;5083215;28;20450;-87
2021/07/12 04:22:28;;;;;;;13.55;9.63;;;17.40;99.90;;;;;;5083026;28;20077;-85
2021/07/12 04:24:54;;;;;;;20.88;10.15;;;17.40;99.90;;;;;;5073935;28;20024;-85
2021/07/12 04:27:19;;;;;;;14.25;9.98;;;17.40;99.90;;;;;;5074286;28;20374;-83
2021/07/12 04:29:45;;;;;;;10.80;9.63;;;17.40;99.90;;;;;;5075309;28;20020;-84
2021/07/12 04:32:11;;;;;;;12.23;9.57;;;17.40;99.90;;;;;;5073756;28;20024;-84
2021/07/12 04:34:37;;;;;;;12.63;9.75;;;17.50;99.90;;;;;;5072188;28;20021;-84
2021/07/12 04:37:04;;;;;;;12.45;9.55;;;17.50;99.90;;;;;;5071629;28;20039;-84
2021/07/12 04:39:29;;;;;;;12.25;10.07;;;17.60;99.90;;;;;;5072396;28;20020;-84
2021/07/12 04:41:55;;;;;;;14.85;10.23;;;17.60;99.90;;;;;;5072384;28;20503;-84
2021/07/12 04:44:21;;;;;;;14.82;10.52;;;17.60;99.90;;;;;;5073434;28;20031;-84
2021/07/12 04:46:48;;;;;;;13.65;10.73;;;17.60;99.90;;;;;;5075553;28;20025;-83
2021/07/12 04:49:13;;;;;;;13.20;10.98;;;17.60;99.90;;;;;;5074663;28;20082;-84
2021/07/12 04:51:39;;;;;;;13.07;10.45;;;17.70;99.90;;;;;;5074207;28;20032;-84
2021/07/12 04:54:05;;;;;;;14.38;10.55;;;17.70;99.90;;;;;;5074156;28;20461;-84
2021/07/12 04:56:31;;;;;;;14.48;11.65;;;17.70;99.90;;;;;;5074107;28;20017;-84
2021/07/12 04:59:03;;;;;;;17.17;11.40;;;17.80;99.90;;;;;;5075488;28;20020;-84
2021/07/12 05:01:32;;;;;;;17.27;12.35;;;17.80;99.90;;;;;;5075106;28;20055;-84
2021/07/12 05:03:59;;;;;;;14.93;11.60;;;17.80;99.90;;;;;;5076516;28;20025;-84
2021/07/12 05:06:24;;;;;;;14.75;11.80;;;17.90;99.90;;;;;;5075144;28;20024;-84
2021/07/12 05:08:50;;;;;;;16.25;12.65;;;17.90;99.90;;;;;;5076416;28;20025;-84
2021/07/12 05:11:16;;;;;;;15.27;12.80;;;17.90;99.90;;;;;;5075544;28;20032;-84
2021/07/12 05:13:43;;;;;;;16.25;13.02;;;17.90;99.90;;;;;;5076152;28;20457;-84
2021/07/12 05:16:09;;;;;;;15.52;12.40;;;18.00;99.90;;;;;;5075477;28;20028;-83
2021/07/12 05:18:39;;;;;;;16.05;12.63;;;18.00;99.90;;;;;;5076686;28;20726;-83
2021/07/12 05:21:06;;;;;;;15.25;12.10;;;18.10;99.90;;;;;;5075563;28;20016;-84
2021/07/12 05:23:31;;;;;;;16.75;12.10;;;18.10;99.90;;;;;;5073133;28;20024;-84
2021/07/12 05:25:57;;;;;;;19.00;12.40;;;18.20;99.90;;;;;;5072806;28;20111;-85
2021/07/12 05:28:23;;;;;;;13.93;12.00;;;18.20;99.90;;;;;;5073350;28;20024;-84
2021/07/12 05:30:49;;;;;;;14.00;11.88;;;18.30;99.90;;;;;;5073165;28;20111;-84
2021/07/12 05:33:15;;;;;;;19.55;13.75;;;18.40;99.90;;;;;;5072774;28;20028;-84
2021/07/12 05:35:41;;;;;;;15.75;12.48;;;18.40;99.90;;;;;;5071861;28;20032;-83
2021/07/12 05:38:07;;;;;;;16.40;12.63;;;18.50;99.90;;;;;;5086980;28;20067;-84
2021/07/12 05:40:33;;;;;;;14.20;11.50;;;18.50;99.90;;;;;;5096844;28;20024;-85
2021/07/12 05:42:59;;;;;;;14.38;11.45;;;18.60;99.90;;;;;;5093646;28;20457;-82
2021/07/12 05:45:25;;;;;;;17.15;12.38;;;18.60;99.90;;;;;;5094807;28;20055;-82
2021/07/12 05:47:51;;;;;;;17.77;12.13;;;18.70;99.90;;;;;;5093724;28;20036;-82
2021/07/12 05:50:17;;;;;;;14.50;11.32;;;18.70;99.90;;;;;;5092798;28;20066;-82
2021/07/12 05:52:42;;;;;;;14.82;11.15;;;18.80;99.90;;;;;;5094152;28;20191;-82
2021/07/12 05:55:09;;;;;;;15.18;11.55;;;18.80;99.90;;;;;;5093042;28;20031;-82
2021/07/12 05:57:34;;;;;;;13.85;11.32;;;18.90;99.90;;;;;;5094633;28;20081;-82
2021/07/12 06:00:00;;;;;;;15.75;11.90;;;18.90;99.90;;;;;;5092924;28;20395;-82
2021/07/12 06:02:26;;;;;;;15.98;12.27;;;18.90;99.90;;;;;;5093007;28;20032;-82
2021/07/12 06:04:51;;;;;;;13.88;12.10;;;19.00;99.90;;;;;;5092557;28;20040;-83
2021/07/12 06:07:17;;;;;;;17.98;11.98;;;19.00;99.90;;;;;;5093566;28;20028;-85
2021/07/12 06:09:43;;;;;;;12.10;10.68;;;19.10;99.90;;;;;;5091957;28;20035;-83
2021/07/12 06:12:09;;;;;;;11.93;9.48;;;19.10;99.90;;;;;;5094148;28;20039;-83
2021/07/12 06:14:35;;;;;;;11.95;10.27;;;19.10;99.90;;;;;;5092356;28;20032;-83
2021/07/12 06:17:02;;;;;;;12.10;10.02;;;19.20;99.90;;;;;;5092476;28;20131;-84
2021/07/12 06:19:28;;;;;;;11.32;9.73;;;19.20;99.90;;;;;;5091751;28;20449;-82
2021/07/12 06:21:54;;;;;;;11.18;9.52;;;19.30;99.90;;;;;;5090163;28;20028;-84
2021/07/12 06:24:19;;;;;;;11.10;9.75;;;19.30;99.90;;;;;;5090096;28;20065;-84
2021/07/12 06:26:45;;;;;;;12.73;10.43;;;19.30;99.90;;;;;;5091466;28;20039;-82
2021/07/12 06:29:11;;;;;;;14.05;10.20;;;19.30;99.90;;;;;;5093107;28;20028;-82
2021/07/12 06:31:36;;;;;;;12.75;9.35;;;19.40;99.90;;;;;;5092106;28;20028;-81
2021/07/12 06:34:02;;;;;;;12.48;9.43;;;19.40;99.90;;;;;;5092328;28;20405;-82
2021/07/12 06:36:28;;;;;;;14.50;9.90;;;19.40;99.90;;;;;;5091787;28;20024;-82
2021/07/12 06:38:54;;;;;;;13.02;9.48;;;19.40;99.90;;;;;;5092137;28;20372;-86
2021/07/12 06:41:20;;;;;;;12.30;9.35;;;19.40;99.90;;;;;;5093385;28;20032;-86
2021/07/12 06:43:45;;;;;;;14.32;9.35;;;19.40;99.90;;;;;;5091547;28;20020;-84
2021/07/12 06:46:11;;;;;;;11.18;8.73;;;19.50;99.90;;;;;;5090862;28;20042;-85
2021/07/12 06:48:37;;;;;;;11.75;8.82;;;19.50;99.90;;;;;;5090894;28;20039;-84
2021/07/12 06:51:02;;;;;;;11.88;9.48;;;19.50;99.90;;;;;;5091209;28;20233;-84
2021/07/12 06:53:28;;;;;;;12.68;9.32;;;19.50;99.90;;;;;;5092618;28;20051;-84
2021/07/12 06:55:54;;;;;;;11.05;9.60;;;19.50;99.90;;;;;;5090749;28;20027;-84
2021/07/12 06:58:19;;;;;;;13.52;9.88;;;19.40;99.90;;;;;;5092115;28;20117;-84
2021/07/12 07:00:45;;;;;;;11.18;9.80;;;19.50;99.90;;;;;;5090254;28;20134;-84
2021/07/12 07:03:10;;;;;;;11.15;8.90;;;19.40;99.90;;;;;;5090684;28;20031;-84
2021/07/12 07:05:36;;;;;;;11.43;9.48;;;19.40;99.90;;;;;;5092066;28;20071;-84
2021/07/12 07:08:03;;;;;;;10.45;8.45;;;19.50;99.90;;;;;;5092877;28;20050;-83
2021/07/12 07:10:29;;;;;;;11.65;9.38;;;19.50;99.90;;;;;;5091984;28;20078;-84
2021/07/12 07:12:54;;;;;;;11.10;8.02;;;19.50;99.90;;;;;;5092099;28;20032;-84
2021/07/12 07:15:20;;;;;;;9.90;8.15;;;19.50;99.90;;;;;;5091910;28;20032;-83
2021/07/12 07:17:46;;;;;;;10.90;8.15;;;19.50;99.90;;;;;;5092263;28;20064;-84
2021/07/12 07:20:12;;;;;;;10.65;7.65;;;19.60;99.90;;;;;;5090413;28;20024;-84
2021/07/12 07:22:38;;;;;;;9.45;8.20;;;19.60;99.90;;;;;;5090083;28;20059;-84
2021/07/12 07:25:04;;;;;;;9.32;7.78;;;19.60;99.90;;;;;;5091879;28;20060;-84
2021/07/12 07:27:31;;;;;;;9.70;7.82;;;19.60;99.90;;;;;;5093408;28;20051;-84
2021/07/12 07:29:57;;;;;;;10.38;7.43;;;19.60;99.90;;;;;;5095077;28;20030;-84
2021/07/12 07:32:23;;;;;;;10.98;7.32;;;19.70;99.90;;;;;;5094297;28;20480;-84
2021/07/12 07:34:48;;;;;;;10.32;7.50;;;19.70;99.90;;;;;;5095518;28;20020;-84
2021/07/12 07:37:14;;;;;;;10.40;7.40;;;19.70;99.90;;;;;;5094314;28;20020;-84
2021/07/12 07:39:40;;;;;;;10.75;7.60;;;19.80;99.90;;;;;;5094086;28;20020;-84
2021/07/12 07:42:06;;;;;;;9.80;6.80;;;19.80;99.90;;;;;;5095271;28;20024;-84
2021/07/12 07:44:32;;;;;;;10.10;7.63;;;19.90;99.90;;;;;;5097955;28;20032;-85
2021/07/12 07:46:58;;;;;;;8.77;7.10;;;19.90;99.90;;;;;;5093639;28;20484;-84
2021/07/12 07:49:24;;;;;;;11.70;7.20;;;20.00;99.90;;;;;;5094495;28;20085;-84
2021/07/12 07:51:50;;;;;;;7.93;6.65;;;20.00;99.90;;;;;;5092483;28;20035;-83
2021/07/12 07:54:16;;;;;;;9.45;6.53;;;20.00;99.90;;;;;;5052898;28;20136;-83
2021/07/12 07:56:42;;;;;;;7.45;6.28;;;20.10;99.90;;;;;;5054116;28;20044;-85
2021/07/12 07:59:08;;;;;;;7.97;5.70;;;20.10;99.90;;;;;;5054291;28;20029;-83
2021/07/12 08:01:34;;;;;;;7.03;5.63;;;20.10;99.90;;;;;;5054020;28;20084;-83
2021/07/12 08:04:00;;;;;;;7.43;6.13;;;20.20;99.90;;;;;;5054353;28;20390;-82
2021/07/12 08:06:26;;;;;;;8.23;6.22;;;20.20;99.90;;;;;;5055727;28;20130;-83
2021/07/12 08:08:52;;;;;;;8.55;6.20;;;20.20;99.90;;;;;;5056614;28;20548;-83
2021/07/12 08:11:17;;;;;;;7.90;5.88;;;20.20;99.90;;;;;;5057876;28;20033;-83
2021/07/12 08:13:43;;;;;;;7.38;6.00;;;20.20;99.90;;;;;;5034796;28;20029;-81
2021/07/12 08:16:09;;;;;;;9.30;6.25;;;20.30;99.90;;;;;;5035344;28;20033;-83
2021/07/12 08:18:35;;;;;;;7.03;6.10;;;20.30;99.90;;;;;;5035750;28;20578;-83
2021/07/12 08:21:02;;;;;;;7.93;6.50;;;20.20;99.90;;;;;;5035161;28;20048;-82
2021/07/12 08:23:27;;;;;;;9.18;7.03;;;20.20;99.90;;;;;;5036073;28;20028;-82
2021/07/12 08:25:53;;;;;;;6.32;5.20;;;20.20;99.90;;;;;;5034880;28;20335;-82
2021/07/12 08:28:19;;;;;;;6.65;5.22;;;20.20;99.90;;;;;;5036141;28;20032;-83
2021/07/12 08:30:46;;;;;;;7.25;5.63;;;20.30;99.90;;;;;;5036189;28;20086;-81
2021/07/12 08:33:12;;;;;;;6.50;5.32;;;20.30;99.70;;;;;;5037800;28;20367;-81
2021/07/12 08:35:37;;;;;;;6.75;5.55;;;20.30;99.90;;;;;;5035300;28;20083;-83
2021/07/12 08:38:04;;;;;;;9.35;5.85;;;20.30;99.90;;;;;;5035852;28;20527;-84
2021/07/12 08:40:31;;;;;;;7.40;5.78;;;20.30;99.90;;;;;;5033438;28;20033;-83
2021/07/12 08:42:58;;;;;;;6.63;4.75;;;20.40;99.30;;;;;;5037157;28;20029;-84
2021/07/12 08:45:25;;;;;;;7.38;5.13;;;20.50;98.90;;;;;;5036756;28;20022;-83
2021/07/12 08:47:51;;;;;;;7.70;5.50;;;20.50;99.20;;;;;;5054185;28;20082;-85
2021/07/12 08:50:18;;;;;;;6.40;5.03;;;20.60;99.10;;;;;;5053308;28;20424;-85
2021/07/12 08:52:45;;;;;;;6.40;4.93;;;20.60;99.50;;;;;;5052825;28;20053;-84
2021/07/12 08:55:12;;;;;;;6.43;4.90;;;20.50;98.90;;;;;;5055535;28;20448;-83
2021/07/12 08:57:38;;;;;;;5.95;4.40;;;20.60;98.60;;;;;;5055396;28;20108;-83
2021/07/12 09:00:08;;;;;;;7.00;4.82;;;20.60;98.70;;;;;;5055406;28;20545;-81
2021/07/12 09:02:36;;;;;;;6.60;4.80;;;20.60;99.00;;;;;;5054618;28;20165;-84
2021/07/12 09:05:06;;;;;;;8.27;4.43;;;20.70;98.90;;;;;;5053384;28;20546;-85
2021/07/12 09:07:33;;;;;;;6.88;4.82;;;20.70;98.10;;;;;;5032276;28;20034;-84
2021/07/12 09:10:06;;;;;;;6.07;4.20;;;20.70;99.10;;;;;;5031786;28;20094;-84
2021/07/12 09:12:47;;;;;;;6.00;4.30;;;20.70;97.70;;;;;;5031831;28;20084;-84
2021/07/12 09:15:15;;;;;;;5.55;4.40;;;20.90;97.40;;;;;;5032405;28;20025;-84
2021/07/12 09:17:46;;;;;;;5.25;4.45;;;20.90;98.50;;;;;;5051187;28;20340;-84
2021/07/12 09:20:23;;;;;;;7.18;4.82;;;20.80;99.70;;;;;;5052465;28;20032;-84
2021/07/12 09:22:49;;;;;;;6.10;4.70;;;20.80;99.90;;;;;;5052465;28;20117;-84
2021/07/12 09:25:14;;;;;;;6.35;4.28;;;20.70;99.90;;;;;;5054309;28;20028;-83
2021/07/12 09:27:42;;;;;;;5.28;3.95;;;20.80;98.00;;;;;;5051666;28;20124;-84
2021/07/12 09:30:16;;;;;;;6.47;4.78;;;20.80;97.70;;;;;;5052969;28;20051;-84
2021/07/12 09:32:46;;;;;;;7.90;5.15;;;20.80;99.70;;;;;;5052110;28;20174;-84
2021/07/12 09:35:16;;;;;;;6.20;4.18;;;20.70;99.90;;;;;;5049671;28;20075;-84
2021/07/12 09:37:44;;;;;;;5.65;4.72;;;20.60;99.90;;;;;;5031045;28;20032;-84
2021/07/12 09:40:14;;;;;;;6.38;4.47;;;20.60;99.90;;;;;;5030869;28;20029;-84
2021/07/12 09:42:41;;;;;;;5.22;4.05;;;20.60;99.90;;;;;;5030713;28;20032;-84
2021/07/12 09:45:10;;;;;;;5.07;3.92;;;20.70;99.90;;;;;;5031593;28;20074;-82
2021/07/12 09:47:39;;;;;;;5.00;4.30;;;20.70;99.90;;;;;;5031653;28;20137;-84
2021/07/12 09:50:08;;;;;;;4.78;4.00;;;20.70;99.90;;;;;;5029421;28;20489;-84
2021/07/12 09:52:59;;;;;;;;;;;20.70;99.90;;;;;;5030851;28;20128;-83
2021/07/12 09:55:25;;;;;;;5.03;2.95;;;20.80;98.60;;;;;;5034336;28;19976;-83
2021/07/12 09:58:09;;;;;;;4.03;3.22;;;20.90;96.80;;;;;;5052319;28;20032;-83
2021/07/12 10:00:36;;;;;;;3.95;3.20;;;20.90;96.70;;;;;;5051183;28;20470;-83
2021/07/12 10:03:02;;;;;;;4.60;2.83;;;20.90;98.50;;;;;;5050988;28;20029;-84
2021/07/12 10:05:28;;;;;;;4.50;3.00;;;20.80;97.30;;;;;;5050721;28;20033;-83
2021/07/12 10:07:55;;;;;;;3.65;2.90;;;20.90;96.50;;;;;;5052531;28;20041;-83
2021/07/12 10:10:21;;;;;;;4.15;2.50;;;20.90;97.60;;;;;;5051270;28;20037;-82
2021/07/12 10:12:47;;;;;;;4.18;2.70;;;21.00;95.80;;;;;;5052862;28;20182;-82
2021/07/12 10:15:15;;;;;;;4.07;2.70;;;21.20;95.10;;;;;;5052636;28;20032;-83
2021/07/12 10:17:45;;;;;;;5.03;3.20;;;21.30;94.40;;;;;;5033999;28;20438;-82
2021/07/12 10:20:13;;;;;;;4.78;3.55;;;21.30;96.10;;;;;;5032008;28;20021;-82
2021/07/12 10:22:39;;;;;;;4.70;3.47;;;21.20;97.60;;;;;;5033040;28;20489;-82
2021/07/12 10:25:12;;;;;;;4.50;3.40;;;21.10;98.30;;;;;;5034047;28;20053;-82
2021/07/12 10:27:51;;;;;;;3.90;2.95;;;21.00;99.00;;;;;;5031987;28;20036;-85
2021/07/12 10:30:28;;;;;;;;;;;21.00;99.40;;;;;;5031444;28;20029;-85
2021/07/12 10:33:00;;;;;;;4.25;3.20;;;20.90;99.50;;;;;;5029976;28;19909;-85
2021/07/12 10:35:54;;;;;;;3.78;3.15;;;20.90;99.80;;;;;;5029509;28;20076;-85
2021/07/12 10:38:26;;;;;;;5.18;3.47;;;20.90;97.30;;;;;;5029457;28;20032;-85
2021/07/12 10:41:00;;;;;;;5.40;3.70;;;21.00;98.40;;;;;;5029357;28;20093;-85
2021/07/12 10:43:46;;;;;;;4.95;3.50;;;21.10;99.70;;;;;;5031141;28;20481;-85
2021/07/12 10:46:26;;;;;;;5.18;3.40;;;21.10;99.60;;;;;;5039756;28;20500;-86
2021/07/12 10:48:53;;;;;;;6.22;4.40;;;21.10;98.70;;;;;;5050881;28;20025;-85
2021/07/12 10:51:26;;;;;;;4.72;3.67;;;21.20;99.20;;;;;;5049182;28;20711;-85
2021/07/12 10:54:14;;;;;;;4.78;3.88;;;21.20;98.70;;;;;;5049858;28;20366;-85
2021/07/12 10:56:50;;;;;;;4.50;3.70;;;21.40;96.10;;;;;;5050556;28;20047;-84
2021/07/12 10:59:33;;;;;;;4.38;3.08;;;21.40;96.50;;;;;;5050782;28;20021;-87
2021/07/12 11:02:03;;;;;;;4.30;3.40;;;21.50;96.30;;;;;;5050676;28;20492;-84
2021/07/12 11:04:29;;;;;;;4.70;4.03;;;21.60;96.50;;;;;;5045705;28;20486;-84
2021/07/12 11:06:56;;;;;;;5.53;3.40;;;21.50;97.00;;;;;;5028306;28;20029;-84
2021/07/12 11:10:03;;;;;;;4.60;3.70;;;21.60;96.80;;;;;;5030361;28;20026;-84
2021/07/12 11:12:31;;;;;;;6.22;3.25;;;21.70;96.00;;;;;;5011585;28;20029;-84
2021/07/12 11:15:13;;;;;;;4.30;3.47;;;21.70;95.00;;;;;;5030089;28;20044;-84
2021/07/12 11:18:05;;;;;;;3.97;3.50;;;21.80;95.20;;;;;;5029030;28;20037;-84
2021/07/12 11:20:49;;;;;;;5.13;3.30;;;21.90;93.80;;;;;;5029066;28;20346;-87
2021/07/12 11:23:33;;;;;;;4.05;3.28;;;21.90;94.20;;;;;;5030952;28;20032;-83
2021/07/12 11:25:59;;;;;;;4.53;3.25;;;22.00;94.90;;;;;;5039349;28;20025;-83
2021/07/12 11:28:44;;;;;;;5.30;3.50;;;21.90;95.00;;;;;;5036323;28;20036;-83
2021/07/12 11:31:43;;;;;;;4.55;3.47;;;22.00;95.10;;;;;;5033848;28;20021;-83
2021/07/12 11:34:35;;;;;;;5.22;3.00;;;22.00;95.10;;;;;;5035076;28;20030;-83
2021/07/12 11:37:04;;;;;;;3.72;3.15;;;22.00;95.40;;;;;;5032499;28;20088;-83
2021/07/12 11:39:36;;;;;;;4.77;3.17;;;22.10;94.90;;;;;;5034305;28;20025;-84
2021/07/12 11:42:22;;;;;;;4.47;2.67;;;22.10;95.10;;;;;;5028968;28;19905;-85
2021/07/12 11:44:55;;;;;;;4.18;3.00;;;22.10;93.60;;;;;;5030259;28;20032;-84
2021/07/12 11:47:28;;;;;;;5.70;3.10;;;22.10;94.30;;;;;;5027925;28;20441;-84
2021/07/12 11:50:01;;;;;;;;;;;22.10;94.50;;;;;;5030348;28;20104;-85
2021/07/12 11:52:28;;;;;;;;;;;22.10;94.70;;;;;;5028288;28;19996;-84
2021/07/12 11:55:07;;;;;;;;;;;22.10;94.80;;;;;;5029584;28;19971;-84
2021/07/12 11:57:36;;;;;;;;;;;22.00;95.10;;;;;;5029139;28;19959;-85
2021/07/12 12:00:03;;;;;;;;;;;22.10;94.50;;;;;;5030439;28;19913;-84
2021/07/12 12:02:29;;;;;;;;;;;22.10;94.50;;;;;;5029544;28;20003;-87
2021/07/12 12:04:57;;;;;;;;;;;22.10;94.70;;;;;;5029686;28;19988;-85
2021/07/12 12:07:40;;;;;;;;;;;22.10;95.00;;;;;;5043801;28;19996;-87
2021/07/12 12:10:05;;;;;;;;;;;22.10;95.20;;;;;;5030096;28;19943;-86
2021/07/12 12:12:32;;;;;;;;;;;22.20;94.70;;;;;;5031716;28;19905;-85
2021/07/12 12:14:59;;;;;;;;;;;22.20;94.50;;;;;;5032439;28;19909;-84
2021/07/12 12:17:25;;;;;;;;;;;22.30;94.40;;;;;;5050798;28;20417;-83
2021/07/12 12:20:00;;;;;;;;;;;22.30;94.70;;;;;;5051490;28;19904;-85
2021/07/12 12:22:25;;;;;;;;;;;22.30;94.20;;;;;;5051905;28;20299;-85
2021/07/12 12:24:52;;;;;;;;;;;22.40;93.60;;;;;;5053338;28;19920;-85
2021/07/12 12:27:18;;;;;;;;;;;22.40;93.90;;;;;;5034386;28;20402;-85
2021/07/12 12:29:43;;;;;;;;;;;22.40;94.00;;;;;;5031482;28;20092;-85
2021/07/12 12:32:08;;;;;;;;;;;22.30;94.10;;;;;;5033219;28;19905;-85
2021/07/12 12:34:34;;;;;;;;;;;22.40;93.30;;;;;;5032267;28;20007;-85
2021/07/12 12:37:04;;;;;;;;;;;22.50;92.60;;;;;;5032002;28;20238;-85
2021/07/12 12:39:29;;;;;;;;;;;22.50;92.70;;;;;;5031714;28;19912;-85
2021/07/12 12:41:57;;;;;;;;;;;22.40;92.80;;;;;;5033030;28;19905;-85
2021/07/12 12:44:31;;;;;;;;;;;22.40;93.10;;;;;;5033315;28;19963;-85
2021/07/12 12:46:58;;;;;;;;;;;22.40;93.20;;;;;;5031451;28;19951;-85
2021/07/12 12:49:32;;;;;;;;;;;22.40;93.00;;;;;;5030168;28;19908;-84
2021/07/12 12:52:04;;;;;;;;;;;22.40;92.90;;;;;;5031271;28;19935;-85
2021/07/12 12:54:31;;;;;;;;;;;22.50;93.30;;;;;;5031612;28;19911;-85
2021/07/12 12:56:57;;;;;;;;;;;22.50;92.80;;;;;;5032008;28;19905;-83
2021/07/12 12:59:31;;;;;;;;;;;22.60;92.50;;;;;;5031974;28;19909;-83
2021/07/12 13:02:12;;;;;;;3.03;2.58;;;22.60;93.00;;;;;;5034103;28;19905;-83
2021/07/12 13:04:47;;;;;;;4.05;2.47;;;22.70;94.10;;;;;;5033397;28;20041;-84